createdAt,value
2018-04-26T02:16:26.864Z,8.71
2018-04-26T02:16:27.425Z,8.68
2018-04-26T02:16:28.023Z,8.72
2018-04-26T02:16:28.622Z,8.71
2018-04-26T02:16:29.243Z,8.73
2018-04-26T02:16:29.821Z,8.69
2018-04-26T02:16:30.421Z,8.71
2018-04-26T02:16:31.025Z,8.68
2018-04-26T02:17:25.526Z,8.63
2018-04-26T02:17:26.097Z,8.68
2018-04-26T02:17:26.697Z,8.73
2018-04-26T02:17:27.300Z,8.69
2018-04-26T02:17:27.897Z,8.65
2018-04-26T02:17:28.496Z,8.75
2018-04-26T02:17:29.096Z,8.69
2018-04-26T02:17:29.697Z,8.65
2018-04-26T02:18:24.204Z,8.66
2018-04-26T02:18:24.783Z,8.69
2018-04-26T02:18:25.374Z,8.72
2018-04-26T02:18:25.979Z,8.69
2018-04-26T02:18:26.572Z,8.76
2018-04-26T02:18:27.175Z,8.69
2018-04-26T02:18:27.773Z,8.72
2018-04-26T02:18:28.373Z,8.73
2018-04-26T02:19:22.885Z,8.73
2018-04-26T02:19:23.450Z,8.71
2018-04-26T02:19:24.053Z,8.76
2018-04-26T02:19:24.650Z,8.71
2018-04-26T02:19:25.249Z,8.65
2018-04-26T02:19:25.849Z,8.71
2018-04-26T02:19:26.451Z,8.62
2018-04-26T02:19:27.049Z,8.69
2018-04-26T02:20:20.533Z,8.73
2018-04-26T02:20:21.105Z,8.78
2018-04-26T02:20:21.703Z,8.66
2018-04-26T02:20:22.328Z,8.69
2018-04-26T02:20:22.902Z,8.66
2018-04-26T02:20:23.504Z,8.69
2018-04-26T02:20:24.105Z,8.71
2018-04-26T02:20:24.712Z,8.81
2018-04-26T02:21:19.722Z,8.71
2018-04-26T02:21:20.290Z,8.66
2018-04-26T02:21:20.889Z,8.72
2018-04-26T02:21:21.490Z,8.72
2018-04-26T02:21:22.090Z,8.69
2018-04-26T02:21:22.690Z,8.69
2018-04-26T02:21:23.289Z,8.79
2018-04-26T02:22:17.786Z,8.68
2018-04-26T02:22:18.353Z,8.69
2018-04-26T02:22:18.953Z,8.71
2018-04-26T02:22:19.553Z,8.72
2018-04-26T02:22:20.152Z,8.71
2018-04-26T02:22:20.757Z,8.83
2018-04-26T02:22:21.352Z,8.83
2018-04-26T02:22:21.958Z,8.71
2018-04-26T02:23:15.946Z,8.72
2018-04-26T02:23:16.519Z,8.87
2018-04-26T02:23:17.118Z,8.81
2018-04-26T02:23:17.717Z,8.75
2018-04-26T02:23:18.316Z,8.81
2018-04-26T02:23:18.916Z,8.79
2018-04-26T02:23:19.515Z,8.73
2018-04-26T02:24:13.090Z,8.75
2018-04-26T02:24:13.657Z,8.75
2018-04-26T02:24:14.257Z,8.78
2018-04-26T02:24:14.856Z,8.71
2018-04-26T02:24:15.459Z,8.78
2018-04-26T02:24:16.060Z,8.69
2018-04-26T02:24:16.655Z,8.73
2018-04-26T02:24:17.257Z,8.83
2018-04-26T02:25:10.741Z,8.79
2018-04-26T02:25:11.310Z,8.79
2018-04-26T02:25:11.909Z,8.75
2018-04-26T02:25:12.510Z,8.78
2018-04-26T02:25:13.112Z,8.81
2018-04-26T02:25:13.709Z,8.78
2018-04-26T02:25:14.308Z,8.78
2018-04-26T02:25:14.907Z,8.72
2018-04-26T02:26:08.396Z,8.84
2018-04-26T02:26:08.962Z,8.75
2018-04-26T02:26:09.560Z,8.90
2018-04-26T02:26:10.165Z,8.73
2018-04-26T02:26:10.767Z,8.83
2018-04-26T02:26:11.370Z,8.75
2018-04-26T02:26:11.959Z,8.78
2018-04-26T02:26:12.559Z,8.81
2018-04-26T02:27:06.042Z,8.83
2018-04-26T02:27:06.615Z,8.88
2018-04-26T02:27:07.212Z,8.84
2018-04-26T02:27:07.813Z,8.94
2018-04-26T02:27:08.415Z,8.84
2018-04-26T02:27:09.018Z,8.93
2018-04-26T02:27:09.615Z,8.88
2018-04-26T02:27:10.214Z,8.88
2018-04-26T02:28:03.697Z,8.91
2018-04-26T02:28:04.264Z,8.93
2018-04-26T02:28:04.864Z,8.76
2018-04-26T02:28:05.465Z,8.75
2018-04-26T02:28:06.068Z,8.88
2018-04-26T02:28:06.665Z,8.94
2018-04-26T02:28:07.261Z,8.86
2018-04-26T02:28:07.862Z,8.87
2018-04-26T02:29:01.347Z,8.87
2018-04-26T02:29:01.916Z,8.91
2018-04-26T02:29:02.517Z,8.90
2018-04-26T02:29:03.116Z,8.91
2018-04-26T02:29:03.718Z,8.84
2018-04-26T02:29:04.322Z,8.88
2018-04-26T02:29:04.916Z,8.91
2018-04-26T02:29:05.520Z,8.81
2018-04-26T02:30:00.022Z,8.86
2018-04-26T02:30:00.592Z,8.91
2018-04-26T02:30:01.191Z,8.91
2018-04-26T02:30:01.791Z,8.86
2018-04-26T02:30:02.421Z,8.96
2018-04-26T02:30:02.996Z,8.83
2018-04-26T02:30:03.590Z,8.94
2018-04-26T02:30:04.190Z,8.87
2018-04-26T02:30:58.190Z,8.90
2018-04-26T02:30:58.760Z,8.88
2018-04-26T02:30:59.357Z,8.88
2018-04-26T02:30:59.955Z,8.97
2018-04-26T02:31:00.557Z,8.97
2018-04-26T02:31:01.155Z,8.94
2018-04-26T02:31:01.756Z,8.94
2018-04-26T02:31:55.350Z,9.01
2018-04-26T02:31:55.898Z,8.97
2018-04-26T02:31:56.503Z,8.99
2018-04-26T02:31:57.098Z,8.96
2018-04-26T02:31:57.696Z,8.99
2018-04-26T02:31:58.296Z,9.02
2018-04-26T02:31:58.896Z,9.01
2018-04-26T02:31:59.495Z,9.01
2018-04-26T02:32:52.977Z,8.96
2018-04-26T02:32:53.549Z,9.01
2018-04-26T02:32:54.147Z,8.93
2018-04-26T02:32:54.749Z,9.02
2018-04-26T02:32:55.351Z,8.94
2018-04-26T02:32:55.957Z,9.01
2018-04-26T02:32:56.549Z,8.97
2018-04-26T02:32:57.145Z,8.94
2018-04-26T02:33:50.629Z,8.97
2018-04-26T02:33:51.200Z,9.05
2018-04-26T02:33:51.798Z,9.01
2018-04-26T02:33:52.403Z,9.01
2018-04-26T02:33:53.005Z,9.02
2018-04-26T02:33:53.601Z,9.02
2018-04-26T02:33:54.198Z,9.02
2018-04-26T02:33:54.797Z,9.02
2018-04-26T02:34:48.289Z,9.06
2018-04-26T02:34:48.850Z,9.13
2018-04-26T02:34:49.452Z,9.09
2018-04-26T02:34:50.055Z,9.06
2018-04-26T02:34:50.652Z,9.12
2018-04-26T02:34:51.250Z,9.10
2018-04-26T02:34:51.850Z,9.10
2018-04-26T02:34:52.451Z,9.09
2018-04-26T02:35:45.939Z,9.13
2018-04-26T02:35:46.502Z,9.12
2018-04-26T02:35:47.103Z,9.12
2018-04-26T02:35:47.706Z,9.16
2018-04-26T02:35:48.304Z,9.21
2018-04-26T02:35:48.902Z,9.13
2018-04-26T02:35:49.503Z,9.15
2018-04-26T02:35:50.103Z,9.10
2018-04-26T02:36:43.588Z,9.16
2018-04-26T02:36:44.161Z,9.13
2018-04-26T02:36:44.755Z,9.24
2018-04-26T02:36:45.376Z,9.13
2018-04-26T02:36:45.963Z,9.06
2018-04-26T02:36:46.556Z,9.10
2018-04-26T02:36:47.156Z,9.12
2018-04-26T02:36:47.753Z,9.10
2018-04-26T02:37:41.235Z,9.12
2018-04-26T02:37:41.806Z,9.15
2018-04-26T02:37:42.406Z,9.13
2018-04-26T02:37:43.008Z,9.16
2018-04-26T02:37:43.605Z,9.13
2018-04-26T02:37:44.206Z,9.23
2018-04-26T02:37:44.805Z,9.15
2018-04-26T02:37:45.408Z,9.15
2018-04-26T02:38:39.404Z,9.13
2018-04-26T02:38:39.984Z,9.09
2018-04-26T02:38:40.568Z,9.23
2018-04-26T02:38:41.194Z,9.09
2018-04-26T02:38:41.768Z,9.15
2018-04-26T02:38:42.366Z,9.09
2018-04-26T02:38:42.968Z,9.28
2018-04-26T02:39:37.465Z,9.12
2018-04-26T02:39:38.032Z,9.23
2018-04-26T02:39:38.629Z,9.24
2018-04-26T02:39:39.232Z,9.27
2018-04-26T02:39:39.831Z,9.23
2018-04-26T02:39:40.430Z,9.24
2018-04-26T02:39:41.030Z,9.25
2018-04-26T02:39:41.628Z,9.24
2018-04-26T02:40:35.112Z,9.27
2018-04-26T02:40:35.682Z,9.25
2018-04-26T02:40:36.282Z,9.28
2018-04-26T02:40:36.881Z,9.27
2018-04-26T02:40:37.483Z,9.30
2018-04-26T02:40:38.085Z,9.27
2018-04-26T02:40:38.680Z,9.23
2018-04-26T02:40:39.282Z,9.31
2018-04-26T02:41:32.859Z,9.27
2018-04-26T02:41:33.334Z,9.27
2018-04-26T02:41:33.933Z,9.27
2018-04-26T02:41:34.534Z,9.28
2018-04-26T02:41:35.137Z,9.27
2018-04-26T02:41:35.733Z,9.27
2018-04-26T02:41:36.335Z,9.24
2018-04-26T02:41:36.938Z,9.25
2018-04-26T02:42:31.439Z,9.27
2018-04-26T02:42:32.011Z,9.32
2018-04-26T02:42:32.608Z,9.27
2018-04-26T02:42:33.209Z,9.27
2018-04-26T02:42:33.808Z,9.27
2018-04-26T02:42:34.411Z,9.28
2018-04-26T02:42:35.009Z,9.31
2018-04-26T02:42:35.609Z,9.30
2018-04-26T02:43:30.115Z,9.27
2018-04-26T02:43:30.684Z,9.30
2018-04-26T02:43:31.288Z,9.30
2018-04-26T02:43:31.884Z,9.27
2018-04-26T02:43:32.486Z,9.28
2018-04-26T02:43:33.084Z,9.27
2018-04-26T02:43:33.684Z,9.23
2018-04-26T02:43:34.283Z,9.27
2018-04-26T02:44:27.767Z,9.24
2018-04-26T02:44:28.340Z,9.23
2018-04-26T02:44:28.943Z,9.28
2018-04-26T02:44:29.538Z,9.28
2018-04-26T02:44:30.137Z,9.24
2018-04-26T02:44:30.737Z,9.21
2018-04-26T02:44:31.336Z,9.23
2018-04-26T02:45:45.905Z,9.21
2018-04-26T02:45:46.469Z,9.23
2018-04-26T02:45:47.069Z,9.23
2018-04-26T02:45:47.668Z,9.24
2018-04-26T02:45:48.277Z,9.21
2018-04-26T02:45:48.917Z,9.24
2018-04-26T02:45:49.546Z,9.25
2018-04-26T02:45:50.097Z,9.13
2018-04-26T02:46:44.574Z,9.13
2018-04-26T02:46:45.147Z,9.23
2018-04-26T02:46:45.743Z,9.25
2018-04-26T02:46:46.344Z,9.24
2018-04-26T02:46:46.947Z,9.23
2018-04-26T02:46:47.554Z,9.20
2018-04-26T02:46:48.143Z,9.21
2018-04-26T02:46:48.743Z,9.25
2018-04-26T02:47:42.229Z,9.09
2018-04-26T02:47:42.797Z,9.27
2018-04-26T02:47:43.395Z,9.09
2018-04-26T02:47:43.996Z,9.21
2018-04-26T02:47:44.595Z,9.09
2018-04-26T02:47:45.196Z,9.15
2018-04-26T02:47:45.794Z,9.27
2018-04-26T02:47:46.396Z,9.23
2018-04-26T02:48:39.879Z,9.10
2018-04-26T02:48:40.448Z,9.18
2018-04-26T02:48:41.052Z,9.15
2018-04-26T02:48:41.648Z,9.13
2018-04-26T02:48:42.247Z,9.13
2018-04-26T02:48:42.847Z,9.15
2018-04-26T02:48:43.446Z,9.13
2018-04-26T02:48:44.050Z,9.15
2018-04-26T02:49:37.530Z,9.09
2018-04-26T02:49:38.099Z,9.09
2018-04-26T02:49:38.700Z,9.18
2018-04-26T02:49:39.301Z,9.16
2018-04-26T02:49:39.902Z,9.23
2018-04-26T02:49:40.501Z,9.24
2018-04-26T02:49:41.098Z,9.23
2018-04-26T02:49:41.699Z,9.21
2018-04-26T02:50:36.205Z,9.15
2018-04-26T02:50:36.778Z,9.12
2018-04-26T02:50:37.373Z,9.09
2018-04-26T02:50:37.974Z,9.16
2018-04-26T02:50:38.576Z,9.18
2018-04-26T02:50:39.173Z,9.25
2018-04-26T02:50:39.773Z,9.15
2018-04-26T02:50:40.373Z,9.09
2018-04-26T02:51:34.879Z,9.15
2018-04-26T02:51:35.449Z,9.23
2018-04-26T02:51:36.049Z,9.18
2018-04-26T02:51:36.650Z,9.16
2018-04-26T02:51:37.252Z,9.21
2018-04-26T02:51:37.851Z,9.23
2018-04-26T02:51:38.452Z,9.23
2018-04-26T02:51:39.072Z,9.23
2018-04-26T02:52:32.532Z,9.25
2018-04-26T02:52:33.109Z,9.27
2018-04-26T02:52:33.712Z,9.24
2018-04-26T02:52:34.300Z,9.23
2018-04-26T02:52:34.900Z,9.23
2018-04-26T02:52:35.501Z,9.27
2018-04-26T02:52:36.100Z,9.25
2018-04-26T02:52:36.701Z,9.25
2018-04-26T02:53:30.183Z,9.20
2018-04-26T02:53:30.756Z,9.27
2018-04-26T02:53:31.354Z,9.30
2018-04-26T02:53:31.953Z,9.28
2018-04-26T02:53:32.553Z,9.28
2018-04-26T02:53:33.157Z,9.21
2018-04-26T02:53:33.756Z,9.28
2018-04-26T02:53:34.354Z,9.25
2018-04-26T02:54:27.837Z,9.30
2018-04-26T02:54:28.407Z,9.25
2018-04-26T02:54:29.010Z,9.23
2018-04-26T02:54:29.607Z,9.34
2018-04-26T02:54:30.206Z,9.28
2018-04-26T02:54:30.810Z,9.31
2018-04-26T02:54:31.407Z,9.27
2018-04-26T02:54:32.007Z,9.27
2018-04-26T02:55:26.510Z,9.27
2018-04-26T02:55:27.083Z,9.24
2018-04-26T02:55:27.680Z,9.30
2018-04-26T02:55:28.280Z,9.24
2018-04-26T02:55:28.884Z,9.28
2018-04-26T02:55:29.480Z,9.25
2018-04-26T02:55:30.080Z,9.24
2018-04-26T02:55:30.680Z,9.27
2018-04-26T02:56:24.164Z,9.24
2018-04-26T02:56:24.734Z,9.27
2018-04-26T02:56:25.336Z,9.25
2018-04-26T02:56:25.932Z,9.31
2018-04-26T02:56:26.531Z,9.25
2018-04-26T02:56:27.134Z,9.24
2018-04-26T02:56:27.734Z,9.25
2018-04-26T02:56:28.334Z,9.30
2018-04-26T02:57:21.815Z,9.27
2018-04-26T02:57:22.385Z,9.27
2018-04-26T02:57:22.990Z,9.28
2018-04-26T02:57:23.591Z,9.25
2018-04-26T02:57:24.183Z,9.32
2018-04-26T02:57:24.783Z,9.25
2018-04-26T02:57:25.383Z,9.28
2018-04-26T02:57:25.983Z,9.28
2018-04-26T02:58:20.490Z,9.25
2018-04-26T02:58:21.063Z,9.24
2018-04-26T02:58:21.658Z,9.23
2018-04-26T02:58:22.256Z,9.24
2018-04-26T02:58:22.858Z,9.32
2018-04-26T02:58:23.458Z,9.25
2018-04-26T02:58:24.057Z,9.30
2018-04-26T02:58:24.657Z,9.27
2018-04-26T02:59:19.170Z,9.27
2018-04-26T02:59:19.737Z,9.25
2018-04-26T02:59:20.342Z,9.25
2018-04-26T02:59:20.938Z,9.28
2018-04-26T02:59:21.535Z,9.32
2018-04-26T02:59:22.135Z,9.28
2018-04-26T02:59:22.734Z,9.31
2018-04-26T02:59:23.341Z,9.31
2018-04-26T03:00:17.846Z,9.30
2018-04-26T03:00:18.411Z,9.38
2018-04-26T03:00:19.010Z,9.45
2018-04-26T03:00:19.610Z,9.40
2018-04-26T03:00:20.211Z,9.34
2018-04-26T03:00:20.811Z,9.34
2018-04-26T03:00:21.418Z,9.38
2018-04-26T03:00:22.009Z,9.39
2018-04-26T03:01:15.494Z,9.35
2018-04-26T03:01:16.063Z,9.35
2018-04-26T03:01:16.664Z,9.45
2018-04-26T03:01:17.262Z,9.28
2018-04-26T03:01:17.863Z,9.30
2018-04-26T03:01:18.463Z,9.45
2018-04-26T03:01:19.064Z,9.32
2018-04-26T03:01:19.663Z,9.39
2018-04-26T03:02:14.170Z,9.32
2018-04-26T03:02:14.737Z,9.39
2018-04-26T03:02:15.338Z,9.35
2018-04-26T03:02:15.939Z,9.45
2018-04-26T03:02:16.543Z,9.31
2018-04-26T03:02:17.137Z,9.30
2018-04-26T03:02:17.740Z,9.32
2018-04-26T03:02:18.341Z,9.42
2018-04-26T03:03:11.821Z,9.39
2018-04-26T03:03:12.392Z,9.38
2018-04-26T03:03:12.995Z,9.35
2018-04-26T03:03:13.590Z,9.38
2018-04-26T03:03:14.192Z,9.42
2018-04-26T03:03:14.791Z,9.48
2018-04-26T03:03:15.390Z,9.32
2018-04-26T03:03:15.990Z,9.39
2018-04-26T03:04:09.480Z,9.35
2018-04-26T03:04:10.044Z,9.35
2018-04-26T03:04:10.641Z,9.35
2018-04-26T03:04:11.242Z,9.39
2018-04-26T03:04:11.844Z,9.34
2018-04-26T03:04:12.442Z,9.38
2018-04-26T03:04:13.043Z,9.42
2018-04-26T03:04:13.642Z,9.40
2018-04-26T03:05:08.149Z,9.38
2018-04-26T03:05:08.718Z,9.48
2018-04-26T03:05:09.329Z,9.46
2018-04-26T03:05:09.920Z,9.42
2018-04-26T03:05:10.518Z,9.32
2018-04-26T03:05:11.119Z,9.49
2018-04-26T03:05:11.717Z,9.45
2018-04-26T03:05:12.316Z,9.46
2018-04-26T03:06:06.822Z,9.40
2018-04-26T03:06:07.409Z,9.32
2018-04-26T03:06:07.991Z,9.40
2018-04-26T03:06:08.596Z,9.43
2018-04-26T03:06:09.193Z,9.38
2018-04-26T03:06:09.792Z,9.43
2018-04-26T03:06:10.390Z,9.39
2018-04-26T03:06:10.993Z,9.32
2018-04-26T03:07:05.499Z,9.28
2018-04-26T03:07:06.074Z,9.38
2018-04-26T03:07:06.669Z,9.34
2018-04-26T03:07:07.268Z,9.38
2018-04-26T03:07:07.869Z,9.38
2018-04-26T03:07:08.468Z,9.40
2018-04-26T03:07:09.070Z,9.34
2018-04-26T03:07:09.668Z,9.38
2018-04-26T03:08:04.175Z,9.30
2018-04-26T03:08:04.744Z,9.30
2018-04-26T03:08:05.344Z,9.45
2018-04-26T03:08:05.944Z,9.32
2018-04-26T03:08:06.545Z,9.39
2018-04-26T03:08:07.144Z,9.45
2018-04-26T03:08:07.747Z,9.39
2018-04-26T03:08:08.344Z,9.43
2018-04-26T03:09:02.853Z,9.34
2018-04-26T03:09:03.422Z,9.39
2018-04-26T03:09:04.021Z,9.43
2018-04-26T03:09:04.621Z,9.39
2018-04-26T03:09:05.221Z,9.42
2018-04-26T03:09:05.820Z,9.48
2018-04-26T03:09:06.421Z,9.40
2018-04-26T03:09:07.021Z,9.45
2018-04-26T03:10:00.501Z,9.39
2018-04-26T03:10:01.075Z,9.35
2018-04-26T03:10:01.677Z,9.32
2018-04-26T03:10:02.272Z,9.43
2018-04-26T03:10:02.875Z,9.43
2018-04-26T03:10:03.474Z,9.43
2018-04-26T03:10:04.085Z,9.46
2018-04-26T03:10:04.673Z,9.34
2018-04-26T03:10:59.203Z,9.30
2018-04-26T03:10:59.745Z,9.34
2018-04-26T03:11:00.345Z,9.39
2018-04-26T03:11:00.951Z,9.45
2018-04-26T03:11:01.548Z,9.32
2018-04-26T03:11:02.147Z,9.43
2018-04-26T03:11:02.746Z,9.43
2018-04-26T03:11:03.354Z,9.38
2018-04-26T03:11:56.831Z,9.42
2018-04-26T03:11:57.400Z,9.35
2018-04-26T03:11:57.998Z,9.30
2018-04-26T03:11:58.601Z,9.42
2018-04-26T03:11:59.198Z,9.45
2018-04-26T03:11:59.811Z,9.39
2018-04-26T03:12:00.404Z,9.39
2018-04-26T03:12:01.012Z,9.39
2018-04-26T03:29:12.612Z,9.27
2018-04-26T03:29:13.181Z,9.27
2018-04-26T03:29:13.779Z,9.28
2018-04-26T03:29:14.380Z,9.30
2018-04-26T03:29:14.995Z,9.27
2018-04-26T03:29:15.578Z,9.32
2018-04-26T03:29:16.178Z,9.27
2018-04-26T03:29:16.778Z,9.25
2018-04-26T03:30:10.265Z,9.32
2018-04-26T03:30:10.833Z,9.28
2018-04-26T03:30:11.433Z,9.24
2018-04-26T03:30:12.032Z,9.25
2018-04-26T03:30:12.635Z,9.27
2018-04-26T03:30:13.233Z,9.27
2018-04-26T03:30:13.831Z,9.28
2018-04-26T03:30:14.433Z,9.25
2018-04-26T03:31:07.970Z,9.27
2018-04-26T03:31:08.523Z,9.25
2018-04-26T03:31:09.103Z,9.27
2018-04-26T03:31:09.724Z,9.28
2018-04-26T03:31:10.325Z,9.28
2018-04-26T03:31:10.898Z,9.23
2018-04-26T03:31:11.588Z,9.25
2018-04-26T03:31:12.125Z,9.23
2018-04-26T03:32:06.592Z,9.28
2018-04-26T03:32:07.159Z,9.25
2018-04-26T03:32:07.760Z,9.31
2018-04-26T03:32:08.360Z,9.27
2018-04-26T03:32:08.963Z,9.30
2018-04-26T03:32:09.560Z,9.27
2018-04-26T03:32:10.159Z,9.27
2018-04-26T03:32:10.759Z,9.23
2018-04-26T03:33:05.269Z,9.24
2018-04-26T03:33:05.839Z,9.27
2018-04-26T03:33:06.435Z,9.27
2018-04-26T03:33:07.049Z,9.24
2018-04-26T03:33:07.648Z,9.25
2018-04-26T03:33:08.236Z,9.27
2018-04-26T03:33:08.835Z,9.30
2018-04-26T03:33:09.435Z,9.25
2018-04-26T03:34:03.944Z,9.27
2018-04-26T03:34:04.513Z,9.24
2018-04-26T03:34:05.111Z,9.28
2018-04-26T03:34:05.713Z,9.31
2018-04-26T03:34:06.314Z,9.25
2018-04-26T03:34:06.911Z,9.28
2018-04-26T03:34:07.512Z,9.30
2018-04-26T03:34:08.114Z,9.27
2018-04-26T03:35:01.598Z,9.28
2018-04-26T03:35:02.164Z,9.25
2018-04-26T03:35:02.764Z,9.31
2018-04-26T03:35:03.364Z,9.27
2018-04-26T03:35:03.965Z,9.28
2018-04-26T03:35:04.565Z,9.21
2018-04-26T03:35:05.166Z,9.21
2018-04-26T03:35:05.764Z,9.27
2018-04-26T03:35:59.251Z,9.23
2018-04-26T03:35:59.817Z,9.23
2018-04-26T03:36:00.416Z,9.25
2018-04-26T03:36:01.017Z,9.21
2018-04-26T03:36:01.616Z,9.24
2018-04-26T03:36:02.216Z,9.16
2018-04-26T03:36:02.817Z,9.25
2018-04-26T03:36:03.419Z,9.24
2018-04-26T03:36:57.922Z,9.09
2018-04-26T03:36:58.496Z,9.24
2018-04-26T03:36:59.092Z,9.24
2018-04-26T03:36:59.691Z,9.25
2018-04-26T03:37:00.292Z,9.23
2018-04-26T03:37:00.894Z,9.21
2018-04-26T03:37:01.491Z,9.23
2018-04-26T03:37:02.091Z,9.23
2018-04-26T03:37:56.086Z,9.10
2018-04-26T03:37:56.661Z,9.24
2018-04-26T03:37:57.255Z,9.23
2018-04-26T03:37:57.854Z,9.24
2018-04-26T03:37:58.456Z,9.25
2018-04-26T03:37:59.057Z,9.21
2018-04-26T03:37:59.655Z,9.21
2018-04-26T03:38:54.664Z,9.27
2018-04-26T03:38:55.232Z,9.27
2018-04-26T03:38:55.836Z,9.24
2018-04-26T03:38:56.431Z,9.23
2018-04-26T03:38:57.037Z,9.24
2018-04-26T03:38:57.630Z,9.27
2018-04-26T03:40:03.172Z,9.27
2018-04-26T03:40:03.737Z,9.24
2018-04-26T03:40:04.346Z,9.21
2018-04-26T03:40:04.933Z,9.30
2018-04-26T03:40:05.534Z,9.21
2018-04-26T03:40:06.136Z,9.21
2018-04-26T03:41:01.645Z,9.23
2018-04-26T03:41:02.207Z,9.30
2018-04-26T03:41:02.807Z,9.28
2018-04-26T03:41:03.408Z,9.28
2018-04-26T03:41:04.006Z,9.31
2018-04-26T03:41:04.605Z,9.25
2018-04-26T03:41:05.214Z,9.24
2018-04-26T03:41:59.697Z,9.23
2018-04-26T03:42:00.268Z,9.28
2018-04-26T03:42:00.867Z,9.27
2018-04-26T03:42:01.467Z,9.23
2018-04-26T03:42:02.067Z,9.23
2018-04-26T03:42:02.670Z,9.30
2018-04-26T03:42:03.267Z,9.27
2018-04-26T03:42:03.866Z,9.24
2018-04-26T03:42:57.349Z,9.30
2018-04-26T03:42:57.920Z,9.28
2018-04-26T03:42:58.522Z,9.24
2018-04-26T03:42:59.121Z,9.28
2018-04-26T03:42:59.723Z,9.27
2018-04-26T03:43:00.320Z,9.32
2018-04-26T03:43:00.919Z,9.25
2018-04-26T03:43:01.522Z,9.24
2018-04-26T03:43:55.004Z,9.25
2018-04-26T03:43:55.574Z,9.27
2018-04-26T03:43:56.176Z,9.28
2018-04-26T03:43:56.773Z,9.24
2018-04-26T03:43:57.372Z,9.25
2018-04-26T03:43:57.972Z,9.27
2018-04-26T03:43:58.572Z,9.25
2018-04-26T03:43:59.171Z,9.27
2018-04-26T03:44:53.678Z,9.27
2018-04-26T03:44:54.247Z,9.24
2018-04-26T03:44:54.850Z,9.30
2018-04-26T03:44:55.445Z,9.24
2018-04-26T03:44:56.046Z,9.28
2018-04-26T03:44:56.647Z,9.25
2018-04-26T03:44:57.246Z,9.24
2018-04-26T03:44:57.854Z,9.25
2018-04-26T03:45:52.354Z,9.35
2018-04-26T03:45:52.923Z,9.28
2018-04-26T03:45:53.525Z,9.31
2018-04-26T03:45:54.123Z,9.34
2018-04-26T03:45:54.721Z,9.35
2018-04-26T03:45:55.323Z,9.28
2018-04-26T03:45:55.921Z,9.42
2018-04-26T03:45:56.523Z,9.38
2018-04-26T03:46:50.006Z,9.42
2018-04-26T03:46:50.575Z,9.42
2018-04-26T03:46:51.177Z,9.30
2018-04-26T03:46:51.775Z,9.30
2018-04-26T03:46:52.380Z,9.34
2018-04-26T03:46:52.974Z,9.39
2018-04-26T03:46:53.575Z,9.38
2018-04-26T03:46:54.174Z,9.30
2018-04-26T03:47:47.656Z,9.34
2018-04-26T03:47:48.228Z,9.39
2018-04-26T03:47:48.831Z,9.39
2018-04-26T03:47:49.428Z,9.43
2018-04-26T03:47:50.028Z,9.38
2018-04-26T03:47:50.627Z,9.31
2018-04-26T03:47:51.249Z,9.35
2018-04-26T03:47:51.827Z,9.40
2018-04-26T03:48:46.334Z,9.40
2018-04-26T03:48:46.902Z,9.46
2018-04-26T03:48:47.501Z,9.46
2018-04-26T03:48:48.106Z,9.49
2018-04-26T03:48:48.702Z,9.32
2018-04-26T03:48:49.302Z,9.38
2018-04-26T03:48:49.901Z,9.40
2018-04-26T03:48:50.502Z,9.32
2018-04-26T03:49:45.012Z,9.48
2018-04-26T03:49:45.579Z,9.49
2018-04-26T03:49:46.182Z,9.39
2018-04-26T03:49:46.778Z,9.38
2018-04-26T03:49:47.377Z,9.42
2018-04-26T03:49:47.978Z,9.42
2018-04-26T03:49:48.576Z,9.42
2018-04-26T03:49:49.176Z,9.46
2018-04-26T03:50:42.661Z,9.50
2018-04-26T03:50:43.234Z,9.46
2018-04-26T03:50:43.832Z,9.48
2018-04-26T03:50:44.431Z,9.52
2018-04-26T03:50:45.033Z,9.52
2018-04-26T03:50:45.630Z,9.50
2018-04-26T03:50:46.233Z,9.46
2018-04-26T03:50:46.910Z,9.42
2018-04-26T03:51:40.312Z,9.52
2018-04-26T03:51:40.885Z,9.45
2018-04-26T03:51:41.484Z,9.43
2018-04-26T03:51:42.082Z,9.48
2018-04-26T03:51:42.683Z,9.43
2018-04-26T03:51:43.282Z,9.40
2018-04-26T03:51:43.882Z,9.46
2018-04-26T03:51:44.481Z,9.42
2018-04-26T03:52:38.988Z,9.45
2018-04-26T03:52:39.560Z,9.53
2018-04-26T03:52:40.160Z,9.42
2018-04-26T03:52:40.757Z,9.50
2018-04-26T03:52:41.358Z,9.49
2018-04-26T03:52:41.960Z,9.46
2018-04-26T03:52:42.556Z,9.50
2018-04-26T03:52:43.160Z,9.46
2018-04-26T03:53:37.667Z,9.39
2018-04-26T03:53:38.244Z,9.48
2018-04-26T03:53:38.831Z,9.49
2018-04-26T03:53:39.432Z,9.49
2018-04-26T03:53:40.033Z,9.42
2018-04-26T03:53:40.635Z,9.48
2018-04-26T03:53:41.239Z,9.49
2018-04-26T03:53:41.832Z,9.43
2018-04-26T03:54:36.328Z,9.46
2018-04-26T03:54:36.903Z,9.48
2018-04-26T03:54:37.503Z,9.50
2018-04-26T03:54:38.102Z,9.48
2018-04-26T03:54:38.702Z,9.48
2018-04-26T03:54:39.302Z,9.43
2018-04-26T03:54:39.902Z,9.48
2018-04-26T03:54:40.505Z,9.48
2018-04-26T03:55:33.980Z,9.40
2018-04-26T03:55:34.555Z,9.39
2018-04-26T03:55:35.158Z,9.49
2018-04-26T03:55:35.755Z,9.48
2018-04-26T03:55:36.356Z,9.38
2018-04-26T03:55:36.958Z,9.40
2018-04-26T03:55:37.553Z,9.42
2018-04-26T03:55:38.154Z,9.48
2018-04-26T03:56:31.632Z,9.45
2018-04-26T03:56:32.211Z,9.48
2018-04-26T03:56:32.806Z,9.45
2018-04-26T03:56:33.406Z,9.43
2018-04-26T03:56:34.012Z,9.50
2018-04-26T03:56:34.606Z,9.50
2018-04-26T03:56:35.206Z,9.38
2018-04-26T03:56:35.819Z,9.38
2018-04-26T03:57:29.284Z,9.43
2018-04-26T03:57:29.858Z,9.43
2018-04-26T03:57:30.457Z,9.39
2018-04-26T03:57:31.063Z,9.50
2018-04-26T03:57:31.662Z,9.48
2018-04-26T03:57:32.260Z,9.46
2018-04-26T03:57:32.858Z,9.46
2018-04-26T03:57:33.457Z,9.49
2018-04-26T03:58:26.944Z,9.49
2018-04-26T03:58:27.512Z,9.46
2018-04-26T03:58:28.110Z,9.50
2018-04-26T03:58:28.709Z,9.52
2018-04-26T03:58:29.309Z,9.50
2018-04-26T03:58:29.911Z,9.53
2018-04-26T03:58:30.509Z,9.43
2018-04-26T03:58:31.186Z,9.43
2018-04-26T03:59:24.588Z,9.40
2018-04-26T03:59:25.162Z,9.39
2018-04-26T03:59:25.768Z,9.42
2018-04-26T03:59:26.363Z,9.43
2018-04-26T03:59:26.963Z,9.42
2018-04-26T03:59:27.563Z,9.43
2018-04-26T03:59:28.161Z,9.49
2018-04-26T03:59:28.760Z,9.43
2018-04-26T04:00:22.243Z,9.38
2018-04-26T04:00:22.816Z,9.49
2018-04-26T04:00:23.413Z,9.49
2018-04-26T04:00:24.013Z,9.50
2018-04-26T04:00:24.613Z,9.46
2018-04-26T04:00:25.214Z,9.50
2018-04-26T04:00:25.812Z,9.49
2018-04-26T04:00:26.413Z,9.46
2018-04-26T04:01:19.889Z,9.52
2018-04-26T04:01:20.469Z,9.50
2018-04-26T04:01:21.064Z,9.50
2018-04-26T04:01:21.663Z,9.52
2018-04-26T04:01:22.263Z,9.53
2018-04-26T04:01:22.862Z,9.49
2018-04-26T04:01:23.463Z,9.50
2018-04-26T04:01:24.062Z,9.50
2018-04-26T04:02:18.567Z,9.50
2018-04-26T04:02:19.143Z,9.53
2018-04-26T04:02:19.739Z,9.57
2018-04-26T04:02:20.338Z,9.56
2018-04-26T04:02:20.939Z,9.53
2018-04-26T04:02:21.538Z,9.50
2018-04-26T04:02:22.138Z,9.52
2018-04-26T04:02:22.739Z,9.53
2018-04-26T04:03:16.728Z,9.50
2018-04-26T04:03:17.309Z,9.56
2018-04-26T04:03:17.904Z,9.53
2018-04-26T04:03:18.504Z,9.50
2018-04-26T04:03:19.103Z,9.52
2018-04-26T04:03:19.702Z,9.56
2018-04-26T04:03:20.302Z,9.53
2018-04-26T04:04:13.872Z,9.56
2018-04-26T04:04:14.446Z,9.50
2018-04-26T04:04:15.045Z,9.56
2018-04-26T04:04:15.648Z,9.53
2018-04-26T04:04:16.244Z,9.50
2018-04-26T04:04:16.845Z,9.53
2018-04-26T04:04:17.443Z,9.57
2018-04-26T04:04:18.043Z,9.52
2018-04-26T04:05:11.521Z,9.53
2018-04-26T04:05:12.096Z,9.53
2018-04-26T04:05:12.695Z,9.56
2018-04-26T04:05:13.295Z,9.53
2018-04-26T04:05:13.895Z,9.48
2018-04-26T04:05:14.496Z,9.53
2018-04-26T04:05:15.097Z,9.48
2018-04-26T04:05:15.695Z,9.50
2018-04-26T04:06:10.198Z,9.50
2018-04-26T04:06:10.770Z,9.56
2018-04-26T04:06:11.370Z,9.53
2018-04-26T04:06:11.969Z,9.56
2018-04-26T04:06:12.569Z,9.52
2018-04-26T04:06:13.169Z,9.50
2018-04-26T04:06:13.771Z,9.56
2018-04-26T04:06:14.371Z,9.53
2018-04-26T04:07:08.873Z,9.53
2018-04-26T04:07:09.447Z,9.48
2018-04-26T04:07:10.046Z,9.53
2018-04-26T04:07:10.650Z,9.52
2018-04-26T04:07:11.245Z,9.53
2018-04-26T04:07:11.848Z,9.53
2018-04-26T04:07:12.445Z,9.50
2018-04-26T04:07:13.045Z,9.52
2018-04-26T04:08:07.547Z,9.49
2018-04-26T04:08:08.122Z,9.46
2018-04-26T04:08:08.725Z,9.38
2018-04-26T04:08:09.321Z,9.50
2018-04-26T04:08:09.921Z,9.45
2018-04-26T04:08:10.522Z,9.50
2018-04-26T04:08:11.121Z,9.50
2018-04-26T04:08:11.723Z,9.50
2018-04-26T04:09:05.200Z,9.50
2018-04-26T04:09:05.776Z,9.50
2018-04-26T04:09:06.374Z,9.53
2018-04-26T04:09:06.975Z,9.53
2018-04-26T04:09:07.578Z,9.48
2018-04-26T04:09:08.174Z,9.53
2018-04-26T04:09:08.776Z,9.50
2018-04-26T04:09:09.374Z,9.43
2018-04-26T04:10:03.879Z,9.56
2018-04-26T04:10:04.451Z,9.56
2018-04-26T04:10:05.049Z,9.52
2018-04-26T04:10:05.648Z,9.52
2018-04-26T04:10:06.249Z,9.52
2018-04-26T04:10:06.848Z,9.52
2018-04-26T04:10:07.451Z,9.52
2018-04-26T04:10:08.048Z,9.53
2018-04-26T04:11:01.527Z,9.50
2018-04-26T04:11:02.102Z,9.52
2018-04-26T04:11:02.703Z,9.48